Terminal Aerodrome Forecast
Issued by NWS Wilmington, OH

Current Version | Previous Version | Graphics & Text | Print | Product List | Glossary On
Versions: 1 2 3 4 5 6 7 8 9 10 11 12 13 14 15
000
FTUS41 KILN 271700
TAFDAY
TAF
KDAY 271733Z 2718/2818 34012KT P6SM OVC035
      TEMPO 2718/2719 BKN030
     FM280400 35009KT P6SM FEW040
     FM281300 36009KT P6SM SCT035=

USA.gov is the U.S. government's official web portal to all federal, state and local government web resources and services.